Orestes, Indiana
Current Conditions -  °F | °C
As of 6:15 PM on Friday 31 Oct 2014 (Local Time) from KMZZ Reporting Station
Light Rain Light Rain  
Wind Chill: 27°   Ceiling: 1000
Heat Index: 36°   Visibility: 3mi
Dew Point: 33°   Wind: 16mph
Humidity: 89%   Direction: 360°N
Pressure: 30.02"   Gusts: 25mph
Location:  40.27°N, 85.73°W
Report Text: KMZZ 312215Z AUTO 36014G22KT 3SM -RA BKN010 OVC014 02/01 A3002 RMK AO2 P0001 T00230006
Loading
Personal Weather Stations






























Interactive Weather Map
Tropical Storm Tracking
New forecast layout! Learn more

10-Day Weather Forecast

Advertisements
Track Severe Weather on mobile